sensor_id;sensor_type;location;lat;lon;timestamp;P1;durP1;ratioP1;P2;durP2;ratioP2
54897;SDS011;40800;52.704;6.398;2023-05-06T00:00:34;40.47;;;38.47;;
54897;SDS011;40800;52.704;6.398;2023-05-06T00:03:00;40.85;;;38.75;;
54897;SDS011;40800;52.704;6.398;2023-05-06T00:05:25;40.97;;;38.97;;
54897;SDS011;40800;52.704;6.398;2023-05-06T00:07:51;40.53;;;38.63;;
54897;SDS011;40800;52.704;6.398;2023-05-06T00:10:17;39.90;;;38.05;;
54897;SDS011;40800;52.704;6.398;2023-05-06T00:12:43;38.97;;;37.20;;
54897;SDS011;40800;52.704;6.398;2023-05-06T00:15:08;40.25;;;38.35;;
54897;SDS011;40800;52.704;6.398;2023-05-06T00:17:34;40.10;;;38.22;;
54897;SDS011;40800;52.704;6.398;2023-05-06T00:20:00;39.70;;;37.80;;
54897;SDS011;40800;52.704;6.398;2023-05-06T00:22:26;42.55;;;40.67;;
54897;SDS011;40800;52.704;6.398;2023-05-06T00:24:52;43.45;;;41.47;;
54897;SDS011;40800;52.704;6.398;2023-05-06T00:27:17;40.75;;;38.95;;
54897;SDS011;40800;52.704;6.398;2023-05-06T00:29:43;43.17;;;41.15;;
54897;SDS011;40800;52.704;6.398;2023-05-06T00:32:08;42.22;;;40.03;;
54897;SDS011;40800;52.704;6.398;2023-05-06T00:34:34;43.30;;;41.05;;
54897;SDS011;40800;52.704;6.398;2023-05-06T00:36:59;42.42;;;40.40;;
54897;SDS011;40800;52.704;6.398;2023-05-06T00:39:25;40.25;;;38.45;;
54897;SDS011;40800;52.704;6.398;2023-05-06T00:41:50;40.78;;;38.78;;
54897;SDS011;40800;52.704;6.398;2023-05-06T00:44:16;39.83;;;38.03;;
54897;SDS011;40800;52.704;6.398;2023-05-06T00:46:42;41.67;;;39.78;;
54897;SDS011;40800;52.704;6.398;2023-05-06T00:49:07;41.22;;;39.33;;
54897;SDS011;40800;52.704;6.398;2023-05-06T00:51:33;42.75;;;40.67;;
54897;SDS011;40800;52.704;6.398;2023-05-06T00:53:59;66.55;;;43.13;;
54897;SDS011;40800;52.704;6.398;2023-05-06T00:56:26;41.70;;;39.80;;
54897;SDS011;40800;52.704;6.398;2023-05-06T00:58:52;41.33;;;39.42;;
54897;SDS011;40800;52.704;6.398;2023-05-06T01:01:18;41.03;;;39.03;;
54897;SDS011;40800;52.704;6.398;2023-05-06T01:03:46;41.22;;;39.30;;
54897;SDS011;40800;52.704;6.398;2023-05-06T01:06:18;42.00;;;40.00;;
54897;SDS011;40800;52.704;6.398;2023-05-06T01:08:57;42.20;;;40.20;;
54897;SDS011;40800;52.704;6.398;2023-05-06T01:11:37;42.60;;;40.60;;
54897;SDS011;40800;52.704;6.398;2023-05-06T01:14:20;43.28;;;41.17;;
54897;SDS011;40800;52.704;6.398;2023-05-06T01:17:08;45.60;;;43.50;;
54897;SDS011;40800;52.704;6.398;2023-05-06T01:19:48;46.00;;;43.80;;
54897;SDS011;40800;52.704;6.398;2023-05-06T01:22:17;42.63;;;40.53;;
54897;SDS011;40800;52.704;6.398;2023-05-06T01:24:43;41.45;;;39.30;;
54897;SDS011;40800;52.704;6.398;2023-05-06T01:29:37;41.72;;;39.83;;
54897;SDS011;40800;52.704;6.398;2023-05-06T01:35:08;43.88;;;41.78;;
54897;SDS011;40800;52.704;6.398;2023-05-06T01:37:40;44.20;;;42.10;;
54897;SDS011;40800;52.704;6.398;2023-05-06T01:40:11;346.33;;;55.85;;
54897;SDS011;40800;52.704;6.398;2023-05-06T01:45:04;43.20;;;41.10;;
54897;SDS011;40800;52.704;6.398;2023-05-06T01:47:31;42.65;;;40.55;;
54897;SDS011;40800;52.704;6.398;2023-05-06T01:49:58;58.13;;;42.70;;
54897;SDS011;40800;52.704;6.398;2023-05-06T01:52:25;99.05;;;41.50;;
54897;SDS011;40800;52.704;6.398;2023-05-06T01:54:51;40.15;;;38.15;;
54897;SDS011;40800;52.704;6.398;2023-05-06T01:57:16;39.20;;;37.38;;
54897;SDS011;40800;52.704;6.398;2023-05-06T01:59:42;39.13;;;37.33;;
54897;SDS011;40800;52.704;6.398;2023-05-06T02:02:07;39.22;;;37.42;;
54897;SDS011;40800;52.704;6.398;2023-05-06T02:04:34;39.95;;;38.10;;
54897;SDS011;40800;52.704;6.398;2023-05-06T02:06:59;39.03;;;37.22;;
54897;SDS011;40800;52.704;6.398;2023-05-06T02:09:25;38.92;;;37.13;;
54897;SDS011;40800;52.704;6.398;2023-05-06T02:11:50;40.50;;;38.60;;
54897;SDS011;40800;52.704;6.398;2023-05-06T02:14:16;40.88;;;38.97;;
54897;SDS011;40800;52.704;6.398;2023-05-06T02:16:42;40.95;;;39.05;;
54897;SDS011;40800;52.704;6.398;2023-05-06T02:19:07;40.60;;;38.67;;
54897;SDS011;40800;52.704;6.398;2023-05-06T02:21:33;39.97;;;38.08;;
54897;SDS011;40800;52.704;6.398;2023-05-06T02:23:58;39.53;;;37.70;;
54897;SDS011;40800;52.704;6.398;2023-05-06T02:26:24;42.53;;;40.45;;
54897;SDS011;40800;52.704;6.398;2023-05-06T02:28:49;42.58;;;40.58;;
54897;SDS011;40800;52.704;6.398;2023-05-06T02:31:15;43.80;;;41.30;;
54897;SDS011;40800;52.704;6.398;2023-05-06T02:33:40;362.45;;;52.75;;
54897;SDS011;40800;52.704;6.398;2023-05-06T02:36:07;41.25;;;39.35;;
54897;SDS011;40800;52.704;6.398;2023-05-06T02:38:33;40.60;;;38.75;;
54897;SDS011;40800;52.704;6.398;2023-05-06T02:40:59;40.40;;;38.50;;
54897;SDS011;40800;52.704;6.398;2023-05-06T02:43:24;39.83;;;38.03;;
54897;SDS011;40800;52.704;6.398;2023-05-06T02:45:50;40.15;;;38.25;;
54897;SDS011;40800;52.704;6.398;2023-05-06T02:48:15;40.90;;;39.00;;
54897;SDS011;40800;52.704;6.398;2023-05-06T02:50:41;38.00;;;36.13;;
54897;SDS011;40800;52.704;6.398;2023-05-06T02:53:06;37.97;;;36.15;;
54897;SDS011;40800;52.704;6.398;2023-05-06T02:55:33;36.92;;;35.15;;
54897;SDS011;40800;52.704;6.398;2023-05-06T02:57:58;37.55;;;35.75;;
54897;SDS011;40800;52.704;6.398;2023-05-06T03:00:24;39.03;;;37.22;;
54897;SDS011;40800;52.704;6.398;2023-05-06T03:02:50;38.92;;;37.13;;
54897;SDS011;40800;52.704;6.398;2023-05-06T03:05:15;39.25;;;37.25;;
54897;SDS011;40800;52.704;6.398;2023-05-06T03:07:41;39.28;;;37.38;;
54897;SDS011;40800;52.704;6.398;2023-05-06T03:10:07;38.50;;;36.60;;
54897;SDS011;40800;52.704;6.398;2023-05-06T03:12:32;37.45;;;35.65;;
54897;SDS011;40800;52.704;6.398;2023-05-06T03:14:58;40.10;;;38.10;;
54897;SDS011;40800;52.704;6.398;2023-05-06T03:17:23;39.25;;;37.35;;
54897;SDS011;40800;52.704;6.398;2023-05-06T03:19:49;181.15;;;40.85;;
54897;SDS011;40800;52.704;6.398;2023-05-06T03:22:15;37.67;;;35.78;;
54897;SDS011;40800;52.704;6.398;2023-05-06T03:24:41;37.70;;;35.88;;
54897;SDS011;40800;52.704;6.398;2023-05-06T03:27:07;39.13;;;37.13;;
54897;SDS011;40800;52.704;6.398;2023-05-06T03:29:32;42.33;;;38.70;;
54897;SDS011;40800;52.704;6.398;2023-05-06T03:32:01;41.42;;;38.78;;
54897;SDS011;40800;52.704;6.398;2023-05-06T03:34:27;38.97;;;36.70;;
54897;SDS011;40800;52.704;6.398;2023-05-06T03:36:53;39.00;;;37.00;;
54897;SDS011;40800;52.704;6.398;2023-05-06T03:39:19;39.47;;;37.38;;
54897;SDS011;40800;52.704;6.398;2023-05-06T03:41:44;40.58;;;37.78;;
54897;SDS011;40800;52.704;6.398;2023-05-06T03:44:10;41.85;;;39.65;;
54897;SDS011;40800;52.704;6.398;2023-05-06T03:46:35;40.75;;;38.70;;
54897;SDS011;40800;52.704;6.398;2023-05-06T03:51:28;41.10;;;38.92;;
54897;SDS011;40800;52.704;6.398;2023-05-06T03:53:54;41.00;;;38.80;;
54897;SDS011;40800;52.704;6.398;2023-05-06T03:56:20;40.95;;;38.72;;
54897;SDS011;40800;52.704;6.398;2023-05-06T03:58:47;40.85;;;38.75;;
54897;SDS011;40800;52.704;6.398;2023-05-06T04:01:12;42.08;;;38.80;;
54897;SDS011;40800;52.704;6.398;2023-05-06T04:03:38;41.85;;;39.72;;
54897;SDS011;40800;52.704;6.398;2023-05-06T04:06:04;43.47;;;41.28;;
54897;SDS011;40800;52.704;6.398;2023-05-06T04:08:30;39.83;;;37.78;;
54897;SDS011;40800;52.704;6.398;2023-05-06T04:10:56;41.63;;;39.53;;
54897;SDS011;40800;52.704;6.398;2023-05-06T04:13:21;41.35;;;39.15;;
54897;SDS011;40800;52.704;6.398;2023-05-06T04:15:47;42.28;;;40.08;;
54897;SDS011;40800;52.704;6.398;2023-05-06T04:18:13;42.22;;;39.92;;
54897;SDS011;40800;52.704;6.398;2023-05-06T04:20:44;40.72;;;38.53;;
54897;SDS011;40800;52.704;6.398;2023-05-06T04:23:11;41.35;;;39.25;;
54897;SDS011;40800;52.704;6.398;2023-05-06T04:25:37;41.47;;;39.17;;
54897;SDS011;40800;52.704;6.398;2023-05-06T04:28:03;41.75;;;38.65;;
54897;SDS011;40800;52.704;6.398;2023-05-06T04:30:29;102.43;;;97.68;;
54897;SDS011;40800;52.704;6.398;2023-05-06T04:32:54;43.28;;;40.67;;
54897;SDS011;40800;52.704;6.398;2023-05-06T04:35:20;44.83;;;42.30;;
54897;SDS011;40800;52.704;6.398;2023-05-06T04:37:45;44.42;;;41.92;;
54897;SDS011;40800;52.704;6.398;2023-05-06T04:42:38;43.50;;;41.05;;
54897;SDS011;40800;52.704;6.398;2023-05-06T04:45:03;44.97;;;42.47;;
54897;SDS011;40800;52.704;6.398;2023-05-06T04:47:29;44.75;;;42.22;;
54897;SDS011;40800;52.704;6.398;2023-05-06T04:49:55;45.30;;;42.70;;
54897;SDS011;40800;52.704;6.398;2023-05-06T04:52:21;46.28;;;43.58;;
54897;SDS011;40800;52.704;6.398;2023-05-06T04:54:46;47.20;;;44.40;;
54897;SDS011;40800;52.704;6.398;2023-05-06T04:57:12;48.55;;;45.55;;
54897;SDS011;40800;52.704;6.398;2023-05-06T04:59:37;49.58;;;46.47;;
54897;SDS011;40800;52.704;6.398;2023-05-06T05:02:03;51.03;;;47.72;;
54897;SDS011;40800;52.704;6.398;2023-05-06T05:04:28;50.95;;;47.50;;
54897;SDS011;40800;52.704;6.398;2023-05-06T05:06:54;48.20;;;45.28;;
54897;SDS011;40800;52.704;6.398;2023-05-06T05:09:20;49.13;;;46.10;;
54897;SDS011;40800;52.704;6.398;2023-05-06T05:11:45;49.17;;;46.17;;
54897;SDS011;40800;52.704;6.398;2023-05-06T05:14:11;49.40;;;46.20;;
54897;SDS011;40800;52.704;6.398;2023-05-06T05:16:36;48.88;;;45.88;;
54897;SDS011;40800;52.704;6.398;2023-05-06T05:19:02;48.42;;;45.33;;
54897;SDS011;40800;52.704;6.398;2023-05-06T05:21:27;50.10;;;47.00;;
54897;SDS011;40800;52.704;6.398;2023-05-06T05:23:53;51.22;;;48.03;;
54897;SDS011;40800;52.704;6.398;2023-05-06T05:26:18;49.13;;;46.03;;
54897;SDS011;40800;52.704;6.398;2023-05-06T05:28:44;51.70;;;48.30;;
54897;SDS011;40800;52.704;6.398;2023-05-06T05:31:10;52.55;;;49.00;;
54897;SDS011;40800;52.704;6.398;2023-05-06T05:33:35;54.80;;;51.08;;
54897;SDS011;40800;52.704;6.398;2023-05-06T05:36:01;53.92;;;50.22;;
54897;SDS011;40800;52.704;6.398;2023-05-06T05:38:27;54.45;;;50.53;;
54897;SDS011;40800;52.704;6.398;2023-05-06T05:40:53;54.38;;;50.67;;
54897;SDS011;40800;52.704;6.398;2023-05-06T05:43:18;54.30;;;50.70;;
54897;SDS011;40800;52.704;6.398;2023-05-06T05:45:46;53.75;;;50.15;;
54897;SDS011;40800;52.704;6.398;2023-05-06T05:48:11;53.28;;;49.70;;
54897;SDS011;40800;52.704;6.398;2023-05-06T05:50:37;52.63;;;49.20;;
54897;SDS011;40800;52.704;6.398;2023-05-06T05:53:02;54.28;;;50.58;;
54897;SDS011;40800;52.704;6.398;2023-05-06T05:55:29;54.65;;;50.60;;
54897;SDS011;40800;52.704;6.398;2023-05-06T05:57:55;53.90;;;50.07;;
54897;SDS011;40800;52.704;6.398;2023-05-06T06:00:21;51.22;;;47.35;;
54897;SDS011;40800;52.704;6.398;2023-05-06T06:02:46;54.10;;;50.13;;
54897;SDS011;40800;52.704;6.398;2023-05-06T06:05:12;52.97;;;49.28;;
54897;SDS011;40800;52.704;6.398;2023-05-06T06:07:37;55.38;;;51.38;;
54897;SDS011;40800;52.704;6.398;2023-05-06T06:10:03;59.15;;;54.35;;
54897;SDS011;40800;52.704;6.398;2023-05-06T06:12:29;63.83;;;57.33;;
54897;SDS011;40800;52.704;6.398;2023-05-06T06:14:55;63.92;;;57.67;;
54897;SDS011;40800;52.704;6.398;2023-05-06T06:17:20;60.22;;;55.08;;
54897;SDS011;40800;52.704;6.398;2023-05-06T06:19:46;62.70;;;57.33;;
54897;SDS011;40800;52.704;6.398;2023-05-06T06:22:11;61.08;;;55.75;;
54897;SDS011;40800;52.704;6.398;2023-05-06T06:24:37;65.50;;;59.28;;
54897;SDS011;40800;52.704;6.398;2023-05-06T06:27:03;62.42;;;57.05;;
54897;SDS011;40800;52.704;6.398;2023-05-06T06:29:28;58.67;;;53.88;;
54897;SDS011;40800;52.704;6.398;2023-05-06T06:31:54;59.78;;;54.95;;
54897;SDS011;40800;52.704;6.398;2023-05-06T06:34:20;59.33;;;54.53;;
54897;SDS011;40800;52.704;6.398;2023-05-06T06:36:46;58.50;;;53.78;;
54897;SDS011;40800;52.704;6.398;2023-05-06T06:39:11;57.17;;;52.60;;
54897;SDS011;40800;52.704;6.398;2023-05-06T06:41:37;58.10;;;53.75;;
54897;SDS011;40800;52.704;6.398;2023-05-06T06:44:03;59.72;;;55.30;;
54897;SDS011;40800;52.704;6.398;2023-05-06T06:46:29;57.08;;;52.50;;
54897;SDS011;40800;52.704;6.398;2023-05-06T06:48:54;56.63;;;51.90;;
54897;SDS011;40800;52.704;6.398;2023-05-06T06:51:20;56.92;;;52.58;;
54897;SDS011;40800;52.704;6.398;2023-05-06T06:53:46;56.83;;;52.60;;
54897;SDS011;40800;52.704;6.398;2023-05-06T06:56:13;55.65;;;51.55;;
54897;SDS011;40800;52.704;6.398;2023-05-06T06:58:39;55.55;;;51.70;;
54897;SDS011;40800;52.704;6.398;2023-05-06T07:01:05;53.80;;;50.10;;
54897;SDS011;40800;52.704;6.398;2023-05-06T07:03:31;54.47;;;50.70;;
54897;SDS011;40800;52.704;6.398;2023-05-06T07:05:56;53.25;;;49.75;;
54897;SDS011;40800;52.704;6.398;2023-05-06T07:08:22;55.25;;;51.33;;
54897;SDS011;40800;52.704;6.398;2023-05-06T07:10:47;53.03;;;49.53;;
54897;SDS011;40800;52.704;6.398;2023-05-06T07:13:13;54.65;;;50.78;;
54897;SDS011;40800;52.704;6.398;2023-05-06T07:15:39;53.85;;;50.05;;
54897;SDS011;40800;52.704;6.398;2023-05-06T07:18:04;53.20;;;49.40;;
54897;SDS011;40800;52.704;6.398;2023-05-06T07:20:30;53.55;;;49.97;;
54897;SDS011;40800;52.704;6.398;2023-05-06T07:22:56;53.53;;;50.10;;
54897;SDS011;40800;52.704;6.398;2023-05-06T07:25:21;53.30;;;49.80;;
54897;SDS011;40800;52.704;6.398;2023-05-06T07:27:47;53.33;;;49.92;;
54897;SDS011;40800;52.704;6.398;2023-05-06T07:30:12;52.13;;;48.67;;
54897;SDS011;40800;52.704;6.398;2023-05-06T07:32:38;51.90;;;48.60;;
54897;SDS011;40800;52.704;6.398;2023-05-06T07:35:05;52.65;;;49.38;;
54897;SDS011;40800;52.704;6.398;2023-05-06T07:37:31;51.92;;;48.60;;
54897;SDS011;40800;52.704;6.398;2023-05-06T07:39:56;52.17;;;48.78;;
54897;SDS011;40800;52.704;6.398;2023-05-06T07:42:22;50.47;;;47.20;;
54897;SDS011;40800;52.704;6.398;2023-05-06T07:44:48;51.50;;;48.30;;
54897;SDS011;40800;52.704;6.398;2023-05-06T07:47:24;52.78;;;49.58;;
54897;SDS011;40800;52.704;6.398;2023-05-06T07:49:52;52.35;;;49.05;;
54897;SDS011;40800;52.704;6.398;2023-05-06T07:52:17;51.97;;;48.72;;
54897;SDS011;40800;52.704;6.398;2023-05-06T07:54:43;51.50;;;48.40;;
54897;SDS011;40800;52.704;6.398;2023-05-06T07:57:08;52.25;;;48.85;;
54897;SDS011;40800;52.704;6.398;2023-05-06T07:59:34;50.90;;;47.75;;
54897;SDS011;40800;52.704;6.398;2023-05-06T08:01:59;51.67;;;48.10;;
54897;SDS011;40800;52.704;6.398;2023-05-06T08:04:25;50.80;;;47.60;;
54897;SDS011;40800;52.704;6.398;2023-05-06T08:06:51;50.45;;;47.45;;
54897;SDS011;40800;52.704;6.398;2023-05-06T08:09:17;48.67;;;45.80;;
54897;SDS011;40800;52.704;6.398;2023-05-06T08:11:43;48.53;;;45.55;;
54897;SDS011;40800;52.704;6.398;2023-05-06T08:14:09;48.22;;;45.42;;
54897;SDS011;40800;52.704;6.398;2023-05-06T08:16:35;46.50;;;43.60;;
54897;SDS011;40800;52.704;6.398;2023-05-06T08:19:00;45.22;;;42.53;;
54897;SDS011;40800;52.704;6.398;2023-05-06T08:21:26;43.70;;;40.90;;
54897;SDS011;40800;52.704;6.398;2023-05-06T08:23:51;41.08;;;38.67;;
54897;SDS011;40800;52.704;6.398;2023-05-06T08:26:17;38.97;;;36.50;;
54897;SDS011;40800;52.704;6.398;2023-05-06T08:28:43;36.65;;;34.17;;
54897;SDS011;40800;52.704;6.398;2023-05-06T08:31:08;34.17;;;32.00;;
54897;SDS011;40800;52.704;6.398;2023-05-06T08:33:34;34.35;;;32.10;;
54897;SDS011;40800;52.704;6.398;2023-05-06T08:35:59;33.10;;;30.85;;
54897;SDS011;40800;52.704;6.398;2023-05-06T08:38:25;29.45;;;27.55;;
54897;SDS011;40800;52.704;6.398;2023-05-06T08:40:51;27.52;;;25.63;;
54897;SDS011;40800;52.704;6.398;2023-05-06T08:43:19;25.80;;;23.88;;
54897;SDS011;40800;52.704;6.398;2023-05-06T08:45:45;25.50;;;23.65;;
54897;SDS011;40800;52.704;6.398;2023-05-06T08:48:11;23.80;;;22.00;;
54897;SDS011;40800;52.704;6.398;2023-05-06T08:50:40;24.30;;;22.45;;
54897;SDS011;40800;52.704;6.398;2023-05-06T08:53:10;23.02;;;21.33;;
54897;SDS011;40800;52.704;6.398;2023-05-06T08:55:37;22.67;;;20.90;;
54897;SDS011;40800;52.704;6.398;2023-05-06T08:58:05;21.83;;;20.10;;
54897;SDS011;40800;52.704;6.398;2023-05-06T09:00:31;21.90;;;20.00;;
54897;SDS011;40800;52.704;6.398;2023-05-06T09:02:57;20.38;;;18.77;;
54897;SDS011;40800;52.704;6.398;2023-05-06T09:05:23;22.73;;;20.83;;
54897;SDS011;40800;52.704;6.398;2023-05-06T09:07:48;21.55;;;19.73;;
54897;SDS011;40800;52.704;6.398;2023-05-06T09:10:14;22.52;;;20.65;;
54897;SDS011;40800;52.704;6.398;2023-05-06T09:12:41;22.08;;;20.13;;
54897;SDS011;40800;52.704;6.398;2023-05-06T09:15:07;20.88;;;19.05;;
54897;SDS011;40800;52.704;6.398;2023-05-06T09:17:33;20.70;;;18.90;;
54897;SDS011;40800;52.704;6.398;2023-05-06T09:20:00;20.30;;;18.38;;
54897;SDS011;40800;52.704;6.398;2023-05-06T09:22:27;20.52;;;18.73;;
54897;SDS011;40800;52.704;6.398;2023-05-06T09:24:55;20.02;;;18.23;;
54897;SDS011;40800;52.704;6.398;2023-05-06T09:27:31;21.52;;;19.63;;
54897;SDS011;40800;52.704;6.398;2023-05-06T09:29:59;21.05;;;19.15;;
54897;SDS011;40800;52.704;6.398;2023-05-06T09:32:27;20.77;;;19.05;;
54897;SDS011;40800;52.704;6.398;2023-05-06T09:34:53;21.27;;;19.38;;
54897;SDS011;40800;52.704;6.398;2023-05-06T09:37:20;20.83;;;18.90;;
54897;SDS011;40800;52.704;6.398;2023-05-06T09:39:45;19.55;;;17.67;;
54897;SDS011;40800;52.704;6.398;2023-05-06T09:42:11;16.30;;;14.57;;
54897;SDS011;40800;52.704;6.398;2023-05-06T09:44:37;17.05;;;15.30;;
54897;SDS011;40800;52.704;6.398;2023-05-06T09:47:03;15.63;;;13.90;;
54897;SDS011;40800;52.704;6.398;2023-05-06T09:49:29;17.80;;;14.20;;
54897;SDS011;40800;52.704;6.398;2023-05-06T09:51:55;15.20;;;12.90;;
54897;SDS011;40800;52.704;6.398;2023-05-06T09:54:21;16.00;;;13.80;;
54897;SDS011;40800;52.704;6.398;2023-05-06T09:56:48;17.80;;;14.45;;
54897;SDS011;40800;52.704;6.398;2023-05-06T09:59:15;15.23;;;13.63;;
54897;SDS011;40800;52.704;6.398;2023-05-06T10:01:42;16.52;;;13.27;;
54897;SDS011;40800;52.704;6.398;2023-05-06T10:04:08;14.82;;;13.20;;
54897;SDS011;40800;52.704;6.398;2023-05-06T10:06:38;15.48;;;13.05;;
54897;SDS011;40800;52.704;6.398;2023-05-06T10:09:04;16.45;;;14.13;;
54897;SDS011;40800;52.704;6.398;2023-05-06T10:11:32;16.58;;;13.60;;
54897;SDS011;40800;52.704;6.398;2023-05-06T10:13:58;17.33;;;14.00;;
54897;SDS011;40800;52.704;6.398;2023-05-06T10:16:25;17.42;;;13.23;;
54897;SDS011;40800;52.704;6.398;2023-05-06T10:18:51;40.08;;;14.68;;
54897;SDS011;40800;52.704;6.398;2023-05-06T10:21:19;33.17;;;12.98;;
54897;SDS011;40800;52.704;6.398;2023-05-06T10:24:04;15.73;;;12.77;;
54897;SDS011;40800;52.704;6.398;2023-05-06T10:26:34;15.88;;;12.55;;
54897;SDS011;40800;52.704;6.398;2023-05-06T10:29:01;19.63;;;13.32;;
54897;SDS011;40800;52.704;6.398;2023-05-06T10:31:33;14.00;;;12.13;;
54897;SDS011;40800;52.704;6.398;2023-05-06T10:33:59;15.27;;;11.90;;
54897;SDS011;40800;52.704;6.398;2023-05-06T10:36:28;15.65;;;12.38;;
54897;SDS011;40800;52.704;6.398;2023-05-06T10:38:57;14.25;;;12.77;;
54897;SDS011;40800;52.704;6.398;2023-05-06T10:41:36;14.52;;;12.88;;
54897;SDS011;40800;52.704;6.398;2023-05-06T10:44:01;13.80;;;12.07;;
54897;SDS011;40800;52.704;6.398;2023-05-06T10:46:27;14.03;;;12.13;;
54897;SDS011;40800;52.704;6.398;2023-05-06T10:51:29;13.70;;;12.30;;
54897;SDS011;40800;52.704;6.398;2023-05-06T10:56:32;13.27;;;11.88;;
54897;SDS011;40800;52.704;6.398;2023-05-06T10:59:39;14.07;;;11.68;;
54897;SDS011;40800;52.704;6.398;2023-05-06T11:01:55;12.95;;;11.63;;
54897;SDS011;40800;52.704;6.398;2023-05-06T11:04:31;22.25;;;12.45;;
54897;SDS011;40800;52.704;6.398;2023-05-06T11:07:10;9.90;;;7.33;;
54897;SDS011;40800;52.704;6.398;2023-05-06T11:12:21;13.65;;;9.45;;
54897;SDS011;40800;52.704;6.398;2023-05-06T11:17:51;10.90;;;9.40;;
54897;SDS011;40800;52.704;6.398;2023-05-06T11:20:23;11.00;;;8.82;;
54897;SDS011;40800;52.704;6.398;2023-05-06T11:22:50;12.52;;;10.10;;
54897;SDS011;40800;52.704;6.398;2023-05-06T11:28:03;10.88;;;9.07;;
54897;SDS011;40800;52.704;6.398;2023-05-06T11:30:31;10.95;;;8.93;;
54897;SDS011;40800;52.704;6.398;2023-05-06T11:32:57;11.33;;;9.10;;
54897;SDS011;40800;52.704;6.398;2023-05-06T11:35:33;9.90;;;8.88;;
54897;SDS011;40800;52.704;6.398;2023-05-06T11:37:59;11.18;;;8.60;;
54897;SDS011;40800;52.704;6.398;2023-05-06T11:40:27;12.17;;;9.20;;
54897;SDS011;40800;52.704;6.398;2023-05-06T11:42:53;12.23;;;10.05;;
54897;SDS011;40800;52.704;6.398;2023-05-06T11:45:20;11.77;;;9.40;;
54897;SDS011;40800;52.704;6.398;2023-05-06T11:47:46;10.97;;;9.13;;
54897;SDS011;40800;52.704;6.398;2023-05-06T11:50:11;11.23;;;9.47;;
54897;SDS011;40800;52.704;6.398;2023-05-06T11:52:37;11.30;;;9.53;;
54897;SDS011;40800;52.704;6.398;2023-05-06T11:55:05;12.13;;;9.53;;
54897;SDS011;40800;52.704;6.398;2023-05-06T11:57:33;11.43;;;8.63;;
54897;SDS011;40800;52.704;6.398;2023-05-06T11:59:59;10.73;;;7.90;;
54897;SDS011;40800;52.704;6.398;2023-05-06T12:02:25;10.93;;;8.67;;
54897;SDS011;40800;52.704;6.398;2023-05-06T12:04:50;10.73;;;8.80;;
54897;SDS011;40800;52.704;6.398;2023-05-06T12:07:17;9.75;;;7.45;;
54897;SDS011;40800;52.704;6.398;2023-05-06T12:09:43;10.93;;;7.83;;
54897;SDS011;40800;52.704;6.398;2023-05-06T12:12:11;8.52;;;6.78;;
54897;SDS011;40800;52.704;6.398;2023-05-06T12:14:39;8.02;;;6.25;;
54897;SDS011;40800;52.704;6.398;2023-05-06T12:17:05;8.43;;;7.17;;
54897;SDS011;40800;52.704;6.398;2023-05-06T12:19:31;7.97;;;6.27;;
54897;SDS011;40800;52.704;6.398;2023-05-06T12:22:13;10.10;;;6.45;;
54897;SDS011;40800;52.704;6.398;2023-05-06T12:24:39;8.50;;;7.05;;
54897;SDS011;40800;52.704;6.398;2023-05-06T12:27:04;9.30;;;6.70;;
54897;SDS011;40800;52.704;6.398;2023-05-06T12:29:30;8.70;;;6.60;;
54897;SDS011;40800;52.704;6.398;2023-05-06T12:32:06;8.35;;;7.10;;
54897;SDS011;40800;52.704;6.398;2023-05-06T12:34:36;10.82;;;8.27;;
54897;SDS011;40800;52.704;6.398;2023-05-06T12:37:03;9.80;;;8.80;;
54897;SDS011;40800;52.704;6.398;2023-05-06T12:39:33;9.68;;;8.15;;
54897;SDS011;40800;52.704;6.398;2023-05-06T12:42:02;10.10;;;8.45;;
54897;SDS011;40800;52.704;6.398;2023-05-06T12:44:28;14.23;;;9.27;;
54897;SDS011;40800;52.704;6.398;2023-05-06T12:49:45;9.85;;;8.55;;
54897;SDS011;40800;52.704;6.398;2023-05-06T12:52:12;10.63;;;8.07;;
54897;SDS011;40800;52.704;6.398;2023-05-06T12:54:38;10.30;;;8.35;;
54897;SDS011;40800;52.704;6.398;2023-05-06T12:57:03;10.70;;;9.10;;
54897;SDS011;40800;52.704;6.398;2023-05-06T12:59:29;10.10;;;9.00;;
54897;SDS011;40800;52.704;6.398;2023-05-06T13:01:56;10.07;;;8.43;;
54897;SDS011;40800;52.704;6.398;2023-05-06T13:04:22;11.02;;;8.30;;
54897;SDS011;40800;52.704;6.398;2023-05-06T13:06:48;11.30;;;8.98;;
54897;SDS011;40800;52.704;6.398;2023-05-06T13:11:41;9.80;;;8.80;;
54897;SDS011;40800;52.704;6.398;2023-05-06T13:14:06;11.03;;;9.70;;
54897;SDS011;40800;52.704;6.398;2023-05-06T13:16:33;11.80;;;9.65;;
54897;SDS011;40800;52.704;6.398;2023-05-06T13:18:59;12.88;;;9.32;;
54897;SDS011;40800;52.704;6.398;2023-05-06T13:21:25;10.17;;;7.97;;
54897;SDS011;40800;52.704;6.398;2023-05-06T13:23:51;14.60;;;8.70;;
54897;SDS011;40800;52.704;6.398;2023-05-06T13:26:16;12.93;;;9.23;;
54897;SDS011;40800;52.704;6.398;2023-05-06T13:28:42;13.33;;;8.20;;
54897;SDS011;40800;52.704;6.398;2023-05-06T13:31:08;9.93;;;8.33;;
54897;SDS011;40800;52.704;6.398;2023-05-06T13:33:33;10.33;;;8.67;;
54897;SDS011;40800;52.704;6.398;2023-05-06T13:35:59;11.93;;;8.03;;
54897;SDS011;40800;52.704;6.398;2023-05-06T13:38:25;8.47;;;7.10;;
54897;SDS011;40800;52.704;6.398;2023-05-06T13:40:51;12.17;;;7.67;;
54897;SDS011;40800;52.704;6.398;2023-05-06T13:43:17;10.05;;;7.82;;
54897;SDS011;40800;52.704;6.398;2023-05-06T13:45:43;9.95;;;7.68;;
54897;SDS011;40800;52.704;6.398;2023-05-06T13:48:10;10.50;;;7.30;;
54897;SDS011;40800;52.704;6.398;2023-05-06T13:50:36;10.65;;;8.32;;
54897;SDS011;40800;52.704;6.398;2023-05-06T13:53:02;12.33;;;7.90;;
54897;SDS011;40800;52.704;6.398;2023-05-06T13:55:28;13.02;;;8.57;;
54897;SDS011;40800;52.704;6.398;2023-05-06T13:57:53;10.67;;;8.23;;
54897;SDS011;40800;52.704;6.398;2023-05-06T14:00:19;10.70;;;7.87;;
54897;SDS011;40800;52.704;6.398;2023-05-06T14:02:45;10.50;;;7.77;;
54897;SDS011;40800;52.704;6.398;2023-05-06T14:05:10;10.37;;;7.03;;
54897;SDS011;40800;52.704;6.398;2023-05-06T14:07:36;9.83;;;7.30;;
54897;SDS011;40800;52.704;6.398;2023-05-06T14:10:02;9.27;;;7.27;;
54897;SDS011;40800;52.704;6.398;2023-05-06T14:12:28;8.60;;;6.77;;
54897;SDS011;40800;52.704;6.398;2023-05-06T14:14:53;9.87;;;8.00;;
54897;SDS011;40800;52.704;6.398;2023-05-06T14:17:19;9.17;;;6.43;;
54897;SDS011;40800;52.704;6.398;2023-05-06T14:19:44;9.73;;;7.20;;
54897;SDS011;40800;52.704;6.398;2023-05-06T14:22:10;10.93;;;6.87;;
54897;SDS011;40800;52.704;6.398;2023-05-06T14:24:35;7.47;;;5.53;;
54897;SDS011;40800;52.704;6.398;2023-05-06T14:27:01;7.83;;;5.20;;
54897;SDS011;40800;52.704;6.398;2023-05-06T14:29:28;9.45;;;5.55;;
54897;SDS011;40800;52.704;6.398;2023-05-06T14:31:53;6.30;;;5.13;;
54897;SDS011;40800;52.704;6.398;2023-05-06T14:34:19;7.17;;;5.00;;
54897;SDS011;40800;52.704;6.398;2023-05-06T14:36:44;8.37;;;6.20;;
54897;SDS011;40800;52.704;6.398;2023-05-06T14:39:10;8.80;;;5.87;;
54897;SDS011;40800;52.704;6.398;2023-05-06T14:41:36;7.78;;;5.50;;
54897;SDS011;40800;52.704;6.398;2023-05-06T14:44:02;8.77;;;5.23;;
54897;SDS011;40800;52.704;6.398;2023-05-06T14:46:27;7.87;;;5.07;;
54897;SDS011;40800;52.704;6.398;2023-05-06T14:48:53;7.47;;;5.03;;
54897;SDS011;40800;52.704;6.398;2023-05-06T14:51:18;9.93;;;5.50;;
54897;SDS011;40800;52.704;6.398;2023-05-06T14:53:44;6.80;;;4.33;;